Time;durP1;ratioP1;P1;durP2;ratioP2;P2;SDS_P1;SDS_P2;PMS_P1;PMS_P2;Temp;Humidity;BMP_temperature;BMP_pressure;BME280_temperature;BME280_humidity;BME280_pressure;Samples;Min_cycle;Max_cycle;Signal;HPM_P1;HPM_P2
2022/06/13 00:00:53;;;;;;;;;;;18.90;59.70;;;;;;5117558;28;19915;-54
2022/06/13 00:03:20;;;;;;;;;;;19.10;59.50;;;;;;5117296;28;19908;-54
2022/06/13 00:05:47;;;;;;;;;;;19.20;58.80;;;;;;5116895;28;19970;-62
2022/06/13 00:08:14;;;;;;;;;;;19.40;58.70;;;;;;5117085;28;20397;-58
2022/06/13 00:10:40;;;;;;;;;;;19.60;58.70;;;;;;5117124;28;20380;-56
2022/06/13 00:13:07;;;;;;;;;;;19.70;58.20;;;;;;5116430;28;19935;-60
2022/06/13 00:15:34;;;;;;;;;;;19.90;57.40;;;;;;5117076;28;19998;-59
2022/06/13 00:18:00;;;;;;;;;;;19.90;57.90;;;;;;5116871;28;19999;-60
2022/06/13 00:20:27;;;;;;;;;;;19.90;57.90;;;;;;5116855;28;19914;-60
2022/06/13 00:22:54;;;;;;;;;;;20.10;57.30;;;;;;5116677;28;19912;-55
2022/06/13 00:25:20;;;;;;;;;;;20.10;57.40;;;;;;5116121;28;19916;-57
2022/06/13 00:27:48;;;;;;;;;;;20.20;56.60;;;;;;5116637;28;20390;-58
2022/06/13 00:30:14;;;;;;;;;;;20.50;56.60;;;;;;5116852;28;20360;-52
2022/06/13 00:32:41;;;;;;;;;;;20.50;55.80;;;;;;5116323;28;20506;-59
2022/06/13 00:35:08;;;;;;;;;;;20.40;56.10;;;;;;5116190;28;19912;-49
2022/06/13 00:37:35;;;;;;;;;;;20.40;56.30;;;;;;5116323;28;19908;-58
2022/06/13 00:40:01;;;;;;;;;;;20.50;56.30;;;;;;5116459;28;19908;-57
2022/06/13 00:42:28;;;;;;;;;;;20.70;55.90;;;;;;5116170;28;20262;-61
2022/06/13 00:45:21;;;;;;;;;;;20.60;56.60;;;;;;5116396;28;20415;-54
2022/06/13 00:47:51;;;;;;;;;;;20.60;56.00;;;;;;5115061;28;19911;-55
2022/06/13 00:50:20;;;;;;;;;;;20.60;55.40;;;;;;5116552;28;19911;-59
2022/06/13 00:53:10;;;;;;;;;;;20.80;55.60;;;;;;5116027;28;20002;-55
2022/06/13 00:55:36;;;;;;;;;;;20.90;56.00;;;;;;5112984;28;19907;-58
2022/06/13 00:58:03;;;;;;;;;;;20.80;55.80;;;;;;5115301;28;19976;-56
2022/06/13 01:00:31;;;;;;;;;;;21.00;55.10;;;;;;5115508;28;19914;-57
2022/06/13 01:02:58;;;;;;;;;;;21.00;56.00;;;;;;5115769;28;20372;-54
2022/06/13 01:05:27;;;;;;;;;;;21.10;55.10;;;;;;5115889;28;19923;-54
2022/06/13 01:07:55;;;;;;;;;;;21.10;54.90;;;;;;5115809;28;20385;-57
2022/06/13 01:13:07;;;;;;;;;;;21.30;54.70;;;;;;5116295;28;19914;-59
2022/06/13 01:15:34;;;;;;;;;;;21.40;54.70;;;;;;5115624;28;19907;-59
2022/06/13 01:18:06;;;;;;;;;;;21.50;55.10;;;;;;5115796;27;19911;-50
2022/06/13 01:20:58;;;;;;;;;;;21.50;55.40;;;;;;5114164;28;20246;-42
2022/06/13 01:23:43;;;;;;;;;;;21.50;54.50;;;;;;5115052;28;19970;-42
2022/06/13 01:26:21;;;;;;;;;;;21.70;53.80;;;;;;5115480;28;19927;-42
2022/06/13 01:29:20;;;;;;;;;;;21.80;54.50;;;;;;5113964;28;19923;-45
2022/06/13 01:31:55;;;;;;;;;;;21.90;54.20;;;;;;5102944;28;19919;-46
2022/06/13 01:34:44;;;;;;;;;;;22.00;54.20;;;;;;5115348;28;19953;-44
2022/06/13 01:37:22;;;;;;;;;;;22.10;54.00;;;;;;5114982;28;20337;-45
2022/06/13 01:40:07;;;;;;;;;;;22.20;54.30;;;;;;5115652;28;19907;-45
2022/06/13 01:42:46;;;;;;;;;;;22.10;54.50;;;;;;5115006;28;19908;-48
2022/06/13 01:45:16;;;;;;;;;;;22.30;54.30;;;;;;5115249;28;19920;-59
2022/06/13 01:48:02;;;;;;;;;;;22.40;53.10;;;;;;5114948;28;19908;-59
2022/06/13 01:50:42;;;;;;;;;;;22.40;53.40;;;;;;5114348;28;19994;-60
2022/06/13 01:53:28;;;;;;;;;;;22.50;53.60;;;;;;5114753;28;20003;-58
2022/06/13 01:56:07;;;;;;;;;;;22.50;53.00;;;;;;5115215;28;19914;-55
2022/06/13 01:58:53;;;;;;;;;;;22.60;52.90;;;;;;5114527;28;20338;-55
2022/06/13 02:01:24;;;;;;;;;;;22.60;52.40;;;;;;5113777;28;19908;-53
2022/06/13 02:03:54;;;;;;;;;;;22.50;54.00;;;;;;5114604;28;20035;-54
2022/06/13 02:06:28;;;;;;;;;;;22.60;53.20;;;;;;5114441;28;19922;-59
2022/06/13 02:09:06;;;;;;;;;;;22.60;53.40;;;;;;5114593;28;19989;-49
2022/06/13 02:11:34;;;;;;;;;;;22.50;54.00;;;;;;5114187;28;20007;-57
2022/06/13 02:14:13;;;;;;;;;;;22.70;53.70;;;;;;5114561;28;19976;-58
2022/06/13 02:16:42;;;;;;;;;;;22.90;53.40;;;;;;5114303;28;19915;-57
2022/06/13 02:19:17;;;;;;;;;;;22.80;52.90;;;;;;5114583;27;19907;-59
2022/06/13 02:21:46;;;;;;;;;;;22.30;53.30;;;;;;5114390;28;19914;-53
2022/06/13 02:24:15;;;;;;;;;;;22.00;53.30;;;;;;5113882;28;19915;-51
2022/06/13 02:26:44;;;;;;;;;;;21.60;53.70;;;;;;5114494;28;19915;-48
2022/06/13 02:29:13;;;;;;;;;;;21.10;55.10;;;;;;5114377;28;19984;-61
2022/06/13 02:31:47;;;;;;;;;;;20.90;57.80;;;;;;5114263;28;19951;-48
2022/06/13 02:34:22;;;;;;;;;;;20.90;58.60;;;;;;5114277;28;19911;-58
2022/06/13 02:37:03;;;;;;;;;;;20.90;55.00;;;;;;5113762;28;20401;-60
2022/06/13 02:39:52;;;;;;;;;;;20.60;56.30;;;;;;5113769;28;19915;-58
2022/06/13 02:42:21;;;;;;;;;;;20.50;59.60;;;;;;5111143;28;19912;-57
2022/06/13 02:44:51;;;;;;;;;;;20.40;55.70;;;;;;5113919;28;19919;-59
2022/06/13 02:47:24;;;;;;;;;;;20.20;57.50;;;;;;5113840;28;19959;-52
2022/06/13 02:49:56;;;;;;;;;;;20.00;58.00;;;;;;5114241;28;19919;-59
2022/06/13 02:52:28;;;;;;;;;;;19.70;57.60;;;;;;5113669;28;19908;-52
2022/06/13 02:54:57;;;;;;;;;;;19.80;62.10;;;;;;5113705;28;19916;-58
2022/06/13 02:57:23;;;;;;;;;;;19.90;62.50;;;;;;5113580;28;19930;-55
2022/06/13 03:00:08;;;;;;;;;;;20.40;59.10;;;;;;5113561;28;19914;-55
2022/06/13 03:02:48;;;;;;;;;;;20.60;60.30;;;;;;5113700;28;20274;-61
2022/06/13 03:05:24;;;;;;;;;;;21.10;58.80;;;;;;5113150;28;19916;-53
2022/06/13 03:07:57;;;;;;;;;;;21.50;57.90;;;;;;5113588;28;19912;-59
2022/06/13 03:10:28;;;;;;;;;;;21.60;54.50;;;;;;5113561;28;19994;-52
2022/06/13 03:12:55;;;;;;;;;;;21.50;56.40;;;;;;5113196;28;19915;-55
2022/06/13 03:15:27;;;;;;;;;;;21.20;56.90;;;;;;5113292;28;19918;-61
2022/06/13 03:18:06;;;;;;;;;;;21.30;58.30;;;;;;5113517;28;19912;-57
2022/06/13 03:20:49;;;;;;;;;;;21.40;57.40;;;;;;5113341;28;19908;-59
2022/06/13 03:23:22;;;;;;;;;;;21.30;57.90;;;;;;5112477;28;19907;-55
2022/06/13 03:25:51;;;;;;;;;;;21.40;56.30;;;;;;5113242;28;20008;-51
2022/06/13 03:28:29;;;;;;;;;;;21.10;56.70;;;;;;5112947;28;19912;-53
2022/06/13 03:31:04;;;;;;;;;;;20.80;57.40;;;;;;5113470;28;20066;-54
2022/06/13 03:33:42;;;;;;;;;;;20.70;56.00;;;;;;5113190;28;19908;-47
2022/06/13 03:36:21;;;;;;;;;;;20.80;54.60;;;;;;5112711;28;19915;-59
2022/06/13 03:39:06;;;;;;;;;;;20.60;58.80;;;;;;5111717;28;19911;-60
2022/06/13 03:41:35;;;;;;;;;;;20.60;59.10;;;;;;5113416;28;19908;-55
2022/06/13 03:44:22;;;;;;;;;;;20.70;58.50;;;;;;5113154;28;19915;-53
2022/06/13 03:46:52;;;;;;;;;;;20.80;58.00;;;;;;5112861;28;20362;-60
2022/06/13 03:49:29;;;;;;;;;;;20.90;57.10;;;;;;5112965;28;19938;-56
2022/06/13 03:51:56;;;;;;;;;;;21.00;56.70;;;;;;5113157;28;19908;-50
2022/06/13 03:54:43;;;;;;;;;;;21.30;56.90;;;;;;5112675;28;20022;-58
2022/06/13 03:57:17;;;;;;;;;;;21.50;57.30;;;;;;5112305;28;19907;-53
2022/06/13 03:59:46;;;;;;;;;;;21.70;55.00;;;;;;5112864;28;19908;-59
2022/06/13 04:02:14;;;;;;;;;;;21.60;56.20;;;;;;5112768;28;19907;-59
2022/06/13 04:04:48;;;;;;;;;;;21.50;54.80;;;;;;5111296;28;19912;-56
2022/06/13 04:07:15;;;;;;;;;;;21.50;56.70;;;;;;5112676;28;19908;-55
2022/06/13 04:09:45;;;;;;;;;;;21.40;57.70;;;;;;5111575;28;19920;-57
2022/06/13 04:12:30;;;;;;;;;;;21.60;56.90;;;;;;5113080;28;20419;-60
2022/06/13 04:14:59;;;;;;;;;;;21.70;56.50;;;;;;5113146;28;19959;-61
2022/06/13 04:17:31;;;;;;;;;;;21.70;56.90;;;;;;5113018;28;19915;-55
2022/06/13 04:20:07;;;;;;;;;;;21.80;56.80;;;;;;5112012;28;21336;-60
2022/06/13 04:22:34;;;;;;;;;;;21.70;57.40;;;;;;5113075;28;20393;-48
2022/06/13 04:25:18;;;;;;;;;;;21.80;57.50;;;;;;5112993;28;19966;-58
2022/06/13 04:27:51;;;;;;;;;;;21.90;56.80;;;;;;5112589;28;19908;-57
2022/06/13 04:30:20;;;;;;;;;;;22.10;55.20;;;;;;5112891;28;19911;-57
2022/06/13 04:32:53;;;;;;;;;;;22.20;54.90;;;;;;5112660;28;19911;-56
2022/06/13 04:35:21;;;;;;;;;;;22.30;56.10;;;;;;5116672;28;20303;-52
2022/06/13 04:37:48;;;;;;;;;;;22.20;56.10;;;;;;5116440;28;19908;-57
2022/06/13 04:40:19;;;;;;;;;;;22.30;55.70;;;;;;5116290;28;19911;-55
2022/06/13 04:42:47;;;;;;;;;;;22.00;56.30;;;;;;5116430;28;20007;-54
2022/06/13 04:45:24;;;;;;;;;;;22.10;55.60;;;;;;5116454;28;19915;-61
2022/06/13 04:47:52;;;;;;;;;;;21.80;57.00;;;;;;5117034;28;19930;-59
2022/06/13 04:50:27;;;;;;;;;;;21.90;55.10;;;;;;5115895;28;20456;-54
2022/06/13 04:52:55;;;;;;;;;;;21.90;56.90;;;;;;5116216;28;19965;-57
2022/06/13 04:55:29;;;;;;;;;;;22.00;55.30;;;;;;5116231;28;19907;-61
2022/06/13 04:57:55;;;;;;;;;;;22.10;56.80;;;;;;5116552;28;19915;-60
2022/06/13 05:00:22;;;;;;;;;;;22.10;56.90;;;;;;5116381;28;19908;-55
2022/06/13 05:02:51;;;;;;;;;;;22.20;56.00;;;;;;5116126;28;19957;-55
2022/06/13 05:05:27;;;;;;;;;;;22.10;56.10;;;;;;5115810;27;19978;-61
2022/06/13 05:07:55;;;;;;;;;;;22.00;56.80;;;;;;5115948;28;20393;-56
2022/06/13 05:10:24;;;;;;;;;;;21.90;57.30;;;;;;5116032;28;19915;-56
2022/06/13 05:12:51;;;;;;;;;;;22.00;56.90;;;;;;5115750;28;19908;-54
2022/06/13 05:15:26;;;;;;;;;;;21.90;56.70;;;;;;5115736;28;20018;-57
2022/06/13 05:18:11;;;;;;;;;;;21.80;54.90;;;;;;5115847;28;19919;-45
2022/06/13 05:21:01;;;;;;;;;;;21.60;56.70;;;;;;5115539;28;19911;-48
2022/06/13 05:23:47;;;;;;;;;;;21.30;57.30;;;;;;5115461;28;19935;-50
2022/06/13 05:26:14;;;;;;;;;;;20.90;56.10;;;;;;5111311;28;19960;-50
2022/06/13 05:28:41;;;;;;;;;;;20.70;57.30;;;;;;5115189;28;19908;-47
2022/06/13 05:31:09;;;;;;;;;;;20.40;60.00;;;;;;5115487;28;19912;-50
2022/06/13 05:33:39;;;;;;;;;;;20.30;60.30;;;;;;5115346;28;19915;-54
2022/06/13 05:36:06;;;;;;;;;;;20.10;60.70;;;;;;5114636;28;19908;-53
2022/06/13 05:38:44;;;;;;;;;;;20.00;60.90;;;;;;5114859;28;19915;-50
2022/06/13 05:41:10;;;;;;;;;;;20.00;58.30;;;;;;5115430;27;19908;-49
2022/06/13 05:43:37;;;;;;;;;;;19.90;58.30;;;;;;5114798;28;19915;-51
2022/06/13 05:46:05;;;;;;;;;;;19.80;59.20;;;;;;5114113;28;19915;-56
2022/06/13 05:48:31;;;;;;;;;;;19.60;60.20;;;;;;5114796;28;19908;-54
2022/06/13 05:50:58;;;;;;;;;;;19.40;59.00;;;;;;5114865;28;20308;-52
2022/06/13 05:53:26;;;;;;;;;;;19.20;62.30;;;;;;5115228;28;19908;-57
2022/06/13 05:56:01;;;;;;;;;;;19.00;62.50;;;;;;5115313;28;19908;-57
2022/06/13 05:58:28;;;;;;;;;;;18.80;62.10;;;;;;5114797;28;19915;-55
2022/06/13 06:00:57;;;;;;;;;;;18.70;62.40;;;;;;5114867;28;19915;-59
2022/06/13 06:03:24;;;;;;;;;;;18.50;63.00;;;;;;5114402;28;19908;-58
2022/06/13 06:05:52;;;;;;;;;;;18.40;64.30;;;;;;5114045;28;19916;-59
2022/06/13 06:08:20;;;;;;;;;;;18.20;64.40;;;;;;5114394;28;20263;-57
2022/06/13 06:10:49;;;;;;;;;;;18.10;66.30;;;;;;5114529;28;19961;-61
2022/06/13 06:13:15;;;;;;;;;;;18.00;67.60;;;;;;5114512;28;20288;-54
2022/06/13 06:15:43;;;;;;;;;;;17.90;67.30;;;;;;5114643;28;19908;-57
2022/06/13 06:18:10;;;;;;;;;;;17.80;67.90;;;;;;5114583;28;19931;-58
2022/06/13 06:20:37;;;;;;;;;;;17.70;67.20;;;;;;5114264;28;20053;-57
2022/06/13 06:23:04;;;;;;;;;;;17.60;68.10;;;;;;5114893;28;19908;-60
2022/06/13 06:25:31;;;;;;;;;;;17.50;68.40;;;;;;5114228;28;19916;-62
2022/06/13 06:27:58;;;;;;;;;;;17.40;68.70;;;;;;5114604;28;19911;-56
2022/06/13 06:30:28;;;;;;;;;;;17.40;68.10;;;;;;5114452;28;19946;-53
2022/06/13 06:32:55;;;;;;;;;;;17.30;69.20;;;;;;5114412;28;19912;-62
2022/06/13 06:35:23;;;;;;;;;;;17.20;69.20;;;;;;5114083;28;20254;-59
2022/06/13 06:37:51;;;;;;;;;;;17.20;69.70;;;;;;5114047;28;19908;-61
2022/06/13 06:40:20;;;;;;;;;;;17.10;69.80;;;;;;5114222;28;20417;-57
2022/06/13 06:42:46;;;;;;;;;;;17.00;70.10;;;;;;5114207;28;19908;-59
2022/06/13 06:45:13;;;;;;;;;;;17.00;70.00;;;;;;5114093;28;20010;-58
2022/06/13 06:47:40;;;;;;;;;;;17.00;70.30;;;;;;5114139;28;20358;-59
2022/06/13 06:50:11;;;;;;;;;;;16.90;70.80;;;;;;5113925;28;19968;-59
2022/06/13 06:52:38;;;;;;;;;;;16.80;70.50;;;;;;5113835;28;19911;-59
2022/06/13 07:00:36;;;;;;;;;;;16.80;70.80;;;;;;5114338;28;20234;-56
2022/06/13 07:03:03;;;;;;;;;;;16.70;71.10;;;;;;5114014;28;19908;-60
2022/06/13 07:05:30;;;;;;;;;;;16.60;71.50;;;;;;5113316;28;19916;-57
2022/06/13 07:07:57;;;;;;;;;;;16.60;71.20;;;;;;5113505;28;19912;-57
2022/06/13 07:10:23;;;;;;;;;;;16.60;71.90;;;;;;5113502;28;19943;-59
2022/06/13 07:12:50;;;;;;;;;;;16.50;71.80;;;;;;5113735;28;19907;-62
2022/06/13 07:15:17;;;;;;;;;;;16.50;71.90;;;;;;5113241;28;19908;-59
2022/06/13 07:17:44;;;;;;;;;;;16.50;71.70;;;;;;5113447;28;20012;-61
2022/06/13 07:20:11;;;;;;;;;;;16.40;71.90;;;;;;5113459;28;19924;-49
2022/06/13 07:22:45;;;;;;;;;;;16.40;72.10;;;;;;5112951;28;20380;-52
2022/06/13 07:25:15;;;;;;;;;;;16.40;72.40;;;;;;5113496;28;19968;-60
2022/06/13 07:27:41;;;;;;;;;;;16.30;72.50;;;;;;5113598;28;19912;-63
2022/06/13 07:30:08;;;;;;;;;;;16.30;72.40;;;;;;5113409;28;20345;-57
2022/06/13 07:32:35;;;;;;;;;;;16.30;72.30;;;;;;5111851;28;20327;-58
2022/06/13 07:35:02;;;;;;;;;;;16.30;72.80;;;;;;5113097;28;19908;-59
2022/06/13 07:40:13;;;;;;;;;;;16.20;73.10;;;;;;5113654;28;19919;-61
2022/06/13 07:42:46;;;;;;;;;;;16.20;73.10;;;;;;5113237;28;19908;-61
2022/06/13 07:45:15;;;;;;;;;;;16.20;72.80;;;;;;5113331;28;20393;-61
2022/06/13 07:47:42;;;;;;;;;;;16.10;73.00;;;;;;5113558;28;20373;-54
2022/06/13 07:50:13;;;;;;;;;;;16.10;73.30;;;;;;5113214;28;19984;-61
2022/06/13 07:52:40;;;;;;;;;;;16.10;73.10;;;;;;5113228;28;20033;-59
2022/06/13 07:55:07;;;;;;;;;;;16.10;73.20;;;;;;5113297;28;19915;-59
2022/06/13 07:57:34;;;;;;;;;;;16.00;73.20;;;;;;5113018;28;19907;-58
2022/06/13 08:00:01;;;;;;;;;;;16.00;73.00;;;;;;5112887;28;20324;-61
2022/06/13 08:02:30;;;;;;;;;;;16.00;73.40;;;;;;5112906;28;19915;-51
2022/06/13 08:04:57;;;;;;;;;;;16.00;73.60;;;;;;5113152;28;19915;-60
2022/06/13 08:07:24;;;;;;;;;;;16.00;73.60;;;;;;5112291;28;20306;-60
2022/06/13 08:09:51;;;;;;;;;;;15.90;73.90;;;;;;5116619;28;20014;-58
2022/06/13 08:12:18;;;;;;;;;;;15.90;73.90;;;;;;5117279;28;20289;-61
2022/06/13 08:14:48;;;;;;;;;;;15.80;73.80;;;;;;5117108;28;19907;-51
2022/06/13 08:17:15;;;;;;;;;;;15.80;73.80;;;;;;5116910;28;19980;-55
2022/06/13 08:19:42;;;;;;;;;;;15.80;74.00;;;;;;5117150;28;19915;-58
2022/06/13 08:22:09;;;;;;;;;;;15.80;74.10;;;;;;5116979;28;19915;-60
2022/06/13 08:24:35;;;;;;;;;;;15.80;73.90;;;;;;5116774;28;19916;-58
2022/06/13 08:27:03;;;;;;;;;;;15.80;74.10;;;;;;5116919;28;19919;-60
2022/06/13 08:29:30;;;;;;;;;;;15.80;74.00;;;;;;5117222;28;19999;-58
2022/06/13 08:31:57;;;;;;;;;;;15.70;74.00;;;;;;5117112;28;19969;-61
2022/06/13 08:34:23;;;;;;;;;;;15.70;73.90;;;;;;5116522;28;19908;-59
2022/06/13 08:36:50;;;;;;;;;;;15.70;74.10;;;;;;5116784;27;19908;-62
2022/06/13 08:39:17;;;;;;;;;;;15.70;74.20;;;;;;5116381;28;19965;-58
2022/06/13 08:41:53;;;;;;;;;;;15.70;74.20;;;;;;5116599;28;20023;-59
2022/06/13 08:44:38;;;;;;;;;;;15.70;74.30;;;;;;5116475;27;20270;-63
2022/06/13 08:47:10;;;;;;;;;;;15.60;74.30;;;;;;5116508;28;19912;-59
2022/06/13 08:49:37;;;;;;;;;;;15.60;74.40;;;;;;5116417;28;19908;-62
2022/06/13 08:52:13;;;;;;;;;;;15.60;74.50;;;;;;5116637;28;19957;-59
2022/06/13 08:54:42;;;;;;;;;;;15.60;74.50;;;;;;5116061;28;19908;-59
2022/06/13 08:57:10;;;;;;;;;;;15.50;74.60;;;;;;5116748;28;19912;-59
2022/06/13 08:59:48;;;;;;;;;;;15.50;74.60;;;;;;5116752;28;20271;-61
2022/06/13 09:02:38;;;;;;;;;;;15.50;74.70;;;;;;5116419;28;20277;-55
2022/06/13 09:05:10;;;;;;;;;;;15.50;74.70;;;;;;5105818;28;20003;-60
2022/06/13 09:07:37;;;;;;;;;;;15.50;74.70;;;;;;5116659;28;19908;-60
2022/06/13 09:10:07;;;;;;;;;;;15.50;74.70;;;;;;5116758;28;19912;-60
2022/06/13 09:12:50;;;;;;;;;;;15.40;74.80;;;;;;5116426;28;19912;-60
2022/06/13 09:15:21;;;;;;;;;;;15.40;74.80;;;;;;5119676;28;19908;-56
2022/06/13 09:18:14;;;;;;;;;;;15.40;74.90;;;;;;5121005;28;19908;-47
2022/06/13 09:20:56;;;;;;;;;;;15.40;74.90;;;;;;5114929;28;20383;-47
2022/06/13 09:23:25;;;;;;;;;;;15.30;75.00;;;;;;5115969;28;19998;-46
2022/06/13 09:25:58;;;;;;;;;;;15.30;75.10;;;;;;5116019;28;19920;-47
2022/06/13 09:28:28;;;;;;;;;;;15.30;75.00;;;;;;5116123;28;19908;-55
2022/06/13 09:30:57;;;;;;;;;;;15.30;75.20;;;;;;5116284;28;19914;-57
2022/06/13 09:33:30;;;;;;;;;;;15.30;75.20;;;;;;5115791;28;19953;-49
2022/06/13 09:36:04;;;;;;;;;;;15.20;75.20;;;;;;5115935;28;20019;-46
2022/06/13 09:38:34;;;;;;;;;;;15.20;75.20;;;;;;5115350;28;19947;-51
2022/06/13 09:41:01;;;;;;;;;;;15.20;75.30;;;;;;5115875;28;19954;-52
2022/06/13 09:43:40;;;;;;;;;;;15.20;75.40;;;;;;5115819;28;20370;-53
2022/06/13 09:46:13;;;;;;;;;;;15.10;75.40;;;;;;5115606;28;19992;-53
2022/06/13 09:48:45;;;;;;;;;;;15.10;75.40;;;;;;5115342;28;19908;-60
2022/06/13 09:51:30;;;;;;;;;;;15.10;75.50;;;;;;5116010;28;19908;-57
2022/06/13 09:54:12;;;;;;;;;;;15.10;75.50;;;;;;5115353;28;19907;-56
2022/06/13 09:56:42;;;;;;;;;;;15.10;75.50;;;;;;5115275;28;19907;-60
2022/06/13 09:59:23;;;;;;;;;;;15.10;75.60;;;;;;5115202;28;19912;-58
2022/06/13 10:02:10;;;;;;;;;;;15.00;75.50;;;;;;5115534;28;19915;-55
2022/06/13 10:04:55;;;;;;;;;;;15.10;75.70;;;;;;5114558;28;19918;-61
2022/06/13 10:07:32;;;;;;;;;;;15.00;75.70;;;;;;5115186;28;20366;-58
2022/06/13 10:10:17;;;;;;;;;;;15.00;75.70;;;;;;5115347;28;19931;-62
2022/06/13 10:12:55;;;;;;;;;;;15.00;75.80;;;;;;5114963;28;20231;-59
2022/06/13 10:15:38;;;;;;;;;;;15.00;75.90;;;;;;5114958;28;20334;-60
2022/06/13 10:18:17;;;;;;;;;;;14.90;75.80;;;;;;5115367;28;19960;-57
2022/06/13 10:20:43;;;;;;;;;;;14.90;75.70;;;;;;5114236;28;20010;-55
2022/06/13 10:23:13;;;;;;;;;;;14.90;75.80;;;;;;5096817;28;19908;-55
2022/06/13 10:26:06;;;;;;;;;;;14.90;76.00;;;;;;5114332;28;19923;-58
2022/06/13 10:28:32;;;;;;;;;;;14.90;75.90;;;;;;5111469;28;19915;-58
2022/06/13 10:31:00;;;;;;;;;;;14.80;76.20;;;;;;5114316;28;19947;-55
2022/06/13 10:33:45;;;;;;;;;;;14.80;76.10;;;;;;5114411;28;20299;-58
2022/06/13 10:36:14;;;;;;;;;;;14.80;76.20;;;;;;5114475;28;19953;-57
2022/06/13 10:38:48;;;;;;;;;;;14.70;76.20;;;;;;5114279;28;20251;-53
2022/06/13 10:41:15;;;;;;;;;;;14.80;76.40;;;;;;5114649;28;19915;-61
2022/06/13 10:43:42;;;;;;;;;;;14.70;76.40;;;;;;5114595;28;19908;-62
2022/06/13 10:46:11;;;;;;;;;;;14.70;76.50;;;;;;5114361;28;19961;-55
2022/06/13 10:48:40;;;;;;;;;;;14.70;76.50;;;;;;5113900;28;19991;-60
2022/06/13 10:51:07;;;;;;;;;;;14.70;76.50;;;;;;5114430;28;19999;-62
2022/06/13 10:53:39;;;;;;;;;;;14.60;76.60;;;;;;5114423;28;20362;-59
2022/06/13 10:56:10;;;;;;;;;;;14.60;76.60;;;;;;5114483;28;19908;-60
2022/06/13 10:58:57;;;;;;;;;;;14.60;76.60;;;;;;5114364;28;19914;-58
2022/06/13 11:01:25;;;;;;;;;;;14.60;76.70;;;;;;5113914;28;19908;-59
2022/06/13 11:04:00;;;;;;;;;;;14.60;76.80;;;;;;5114199;28;19914;-55
2022/06/13 11:06:34;;;;;;;;;;;14.60;76.80;;;;;;5095843;28;20359;-59
2022/06/13 11:09:01;;;;;;;;;;;14.60;76.80;;;;;;5114033;28;19920;-56
2022/06/13 11:11:29;;;;;;;;;;;14.60;76.80;;;;;;5113992;28;19912;-63
2022/06/13 11:13:56;;;;;;;;;;;14.60;76.80;;;;;;5114117;28;20007;-59
2022/06/13 11:22:40;;;;;;;;;;;14.50;76.90;;;;;;5114152;28;20308;-59
2022/06/13 11:25:19;;;;;;;;;;;14.50;76.90;;;;;;5113749;28;20389;-58
2022/06/13 11:27:48;;;;;;;;;;;14.50;77.00;;;;;;5113791;28;19914;-57
2022/06/13 11:30:19;;;;;;;;;;;14.50;77.10;;;;;;5113792;28;19907;-59
2022/06/13 11:33:00;;;;;;;;;;;14.40;77.00;;;;;;5113444;28;19994;-61
2022/06/13 11:35:45;;;;;;;;;;;14.40;77.10;;;;;;5113948;28;20342;-60
2022/06/13 11:38:18;;;;;;;;;;;14.40;77.20;;;;;;5113746;28;20009;-62
2022/06/13 11:41:07;;;;;;;;;;;14.40;77.30;;;;;;5113204;28;19996;-62
2022/06/13 11:43:54;;;;;;;;;;;14.30;77.80;;;;;;5109864;28;19908;-54
2022/06/13 11:46:24;;;;;;;;;;;14.30;77.40;;;;;;5113678;28;20419;-60
2022/06/13 11:48:51;;;;;;;;;;;14.40;77.40;;;;;;5113261;28;20425;-59
2022/06/13 11:51:23;;;;;;;;;;;14.30;77.40;;;;;;5113432;28;19962;-61
2022/06/13 11:53:51;;;;;;;;;;;14.30;77.40;;;;;;5113648;28;19915;-61
2022/06/13 11:56:22;;;;;;;;;;;14.30;77.50;;;;;;5113563;28;19914;-59
2022/06/13 11:58:50;;;;;;;;;;;14.20;77.50;;;;;;5112900;28;19908;-56
2022/06/13 12:01:20;;;;;;;;;;;14.30;77.70;;;;;;5113529;28;20045;-58
2022/06/13 12:03:49;;;;;;;;;;;14.20;77.60;;;;;;5113510;28;20002;-55
2022/06/13 12:06:17;;;;;;;;;;;14.20;77.70;;;;;;5113537;28;19920;-61
2022/06/13 12:08:48;;;;;;;;;;;14.20;77.60;;;;;;5113116;28;20006;-60
2022/06/13 12:11:15;;;;;;;;;;;14.20;77.70;;;;;;5113522;28;20342;-60
2022/06/13 12:13:43;;;;;;;;;;;14.20;77.70;;;;;;5113555;28;19908;-62
2022/06/13 12:16:20;;;;;;;;;;;14.20;77.80;;;;;;5113448;28;19907;-60
2022/06/13 12:18:54;;;;;;;;;;;14.20;77.80;;;;;;5111849;28;19908;-60
2022/06/13 12:21:21;;;;;;;;;;;14.10;77.70;;;;;;5113666;28;20271;-61
2022/06/13 12:23:56;;;;;;;;;;;14.20;77.80;;;;;;5113486;28;19912;-60
2022/06/13 12:26:28;;;;;;;;;;;14.20;77.90;;;;;;5112063;28;20022;-55
2022/06/13 12:29:12;;;;;;;;;;;14.10;77.80;;;;;;5113400;28;19908;-61
2022/06/13 12:31:42;;;;;;;;;;;14.10;77.80;;;;;;5113450;28;20243;-59
2022/06/13 12:34:25;;;;;;;;;;;14.10;77.90;;;;;;5113174;28;19919;-62
2022/06/13 12:37:05;;;;;;;;;;;14.10;78.00;;;;;;5113410;28;19951;-60
2022/06/13 12:39:52;;;;;;;;;;;14.10;78.00;;;;;;5113306;28;19908;-61
2022/06/13 12:42:39;;;;;;;;;;;14.10;78.10;;;;;;5108735;28;19912;-59
2022/06/13 12:45:19;;;;;;;;;;;14.00;78.00;;;;;;5113136;28;20338;-59
2022/06/13 12:47:58;;;;;;;;;;;14.00;78.10;;;;;;5113290;28;20419;-60
2022/06/13 12:50:28;;;;;;;;;;;14.00;78.70;;;;;;5113115;28;20348;-61
2022/06/13 12:53:04;;;;;;;;;;;14.00;78.20;;;;;;5112966;28;19908;-62
2022/06/13 12:55:31;;;;;;;;;;;14.00;78.30;;;;;;5116310;28;19912;-58
2022/06/13 12:58:07;;;;;;;;;;;13.90;78.20;;;;;;5117022;28;19960;-59
2022/06/13 13:00:42;;;;;;;;;;;14.00;78.40;;;;;;5116807;28;19912;-59
2022/06/13 13:03:48;;;;;;;;;;;13.90;78.50;;;;;;5116542;28;19915;-55
2022/06/13 13:06:33;;;;;;;;;;;13.90;78.50;;;;;;5094209;28;19916;-58
2022/06/13 13:09:08;;;;;;;;;;;13.90;78.50;;;;;;5093891;28;19920;-54
2022/06/13 13:11:44;;;;;;;;;;;13.90;78.80;;;;;;5101586;28;19914;-59
2022/06/13 13:14:14;;;;;;;;;;;13.90;78.90;;;;;;5116668;28;19907;-42
2022/06/13 13:16:58;;;;;;;;;;;13.80;78.90;;;;;;5116354;28;19946;-48
2022/06/13 13:19:44;;;;;;;;;;;13.80;79.00;;;;;;5116428;28;19947;-57
2022/06/13 13:22:12;;;;;;;;;;;13.80;79.00;;;;;;5116569;28;20350;-46
2022/06/13 13:24:39;;;;;;;;;;;13.80;79.00;;;;;;5116038;28;20370;-49
2022/06/13 13:27:07;;;;;;;;;;;13.80;79.00;;;;;;5116223;28;19950;-48
2022/06/13 13:29:34;;;;;;;;;;;13.80;79.00;;;;;;5116233;28;19953;-49
2022/06/13 13:32:12;;;;;;;;;;;13.80;79.00;;;;;;5116003;28;20018;-53
2022/06/13 13:34:45;;;;;;;;;;;13.70;79.00;;;;;;5115845;28;19982;-54
2022/06/13 13:37:25;;;;;;;;;;;13.80;79.10;;;;;;5116204;28;19911;-54
2022/06/13 13:40:14;;;;;;;;;;;13.70;79.20;;;;;;5116030;28;19911;-52
2022/06/13 13:42:56;;;;;;;;;;;13.70;79.20;;;;;;5115942;27;19915;-47
2022/06/13 13:45:23;;;;;;;;;;;13.70;79.20;;;;;;5115890;28;19934;-52
2022/06/13 13:47:52;;;;;;;;;;;13.70;79.30;;;;;;5115721;28;19915;-51
2022/06/13 13:50:22;;;;;;;;;;;13.70;79.30;;;;;;5115703;28;20008;-54
2022/06/13 13:53:01;;;;;;;;;;;13.70;79.30;;;;;;5114181;28;20060;-47
2022/06/13 13:55:49;;;;;;;;;;;13.60;79.20;;;;;;5115906;28;19912;-54
2022/06/13 13:58:26;;;;;;;;;;;13.70;79.30;;;;;;5115407;28;19908;-53
2022/06/13 14:01:03;;;;;;;;;;;13.60;79.40;;;;;;5115887;28;19908;-50
2022/06/13 14:03:33;;;;;;;;;;;13.60;79.30;;;;;;5115423;28;19932;-47
2022/06/13 14:06:07;;;;;;;;;;;13.60;79.40;;;;;;5114789;28;19915;-57
2022/06/13 14:08:36;;;;;;;;;;;13.60;79.50;;;;;;5115076;28;19920;-52
2022/06/13 14:11:05;;;;;;;;;;;13.50;79.50;;;;;;5115286;28;20031;-56
2022/06/13 14:13:37;;;;;;;;;;;13.50;79.50;;;;;;5115370;28;20341;-61
2022/06/13 14:16:18;;;;;;;;;;;13.50;79.50;;;;;;5115340;28;19911;-56
2022/06/13 14:18:45;;;;;;;;;;;13.50;79.60;;;;;;5115175;28;19918;-56
2022/06/13 14:21:12;;;;;;;;;;;13.50;79.60;;;;;;5115262;28;19946;-58
2022/06/13 14:23:58;;;;;;;;;;;13.50;79.70;;;;;;5115219;27;19920;-53
2022/06/13 14:26:52;;;;;;;;;;;13.40;79.70;;;;;;5114697;28;19915;-59
2022/06/13 14:29:25;;;;;;;;;;;13.40;79.70;;;;;;5112659;28;19912;-56
2022/06/13 14:31:57;;;;;;;;;;;13.40;79.80;;;;;;5114809;28;19908;-59
2022/06/13 14:37:46;;;;;;;;;;;13.40;79.90;;;;;;5105873;28;19911;-59
2022/06/13 14:40:13;;;;;;;;;;;13.40;79.90;;;;;;5115003;28;19908;-61
2022/06/13 14:42:57;;;;;;;;;;;13.30;79.90;;;;;;5114762;28;20358;-58
2022/06/13 14:45:42;;;;;;;;;;;13.40;79.90;;;;;;5115038;28;19916;-60
2022/06/13 14:48:27;;;;;;;;;;;13.40;80.00;;;;;;5114892;28;19908;-62
2022/06/13 14:50:59;;;;;;;;;;;13.30;79.90;;;;;;5114986;28;20362;-61
2022/06/13 14:53:25;;;;;;;;;;;13.30;79.90;;;;;;5114677;28;19911;-59
2022/06/13 14:56:07;;;;;;;;;;;13.30;79.90;;;;;;5114698;28;19915;-59
2022/06/13 14:58:46;;;;;;;;;;;13.30;79.90;;;;;;5114433;28;20394;-62
2022/06/13 15:01:35;;;;;;;;;;;13.30;79.90;;;;;;5114652;28;20372;-60
2022/06/13 15:04:07;;;;;;;;;;;13.30;79.90;;;;;;5103873;28;19908;-61
2022/06/13 15:06:44;;;;;;;;;;;13.30;79.90;;;;;;5114351;28;20281;-59
2022/06/13 15:09:29;;;;;;;;;;;13.30;80.00;;;;;;5114253;28;19920;-60